Time;durP1;ratioP1;P1;durP2;ratioP2;P2;SDS_P1;SDS_P2;PMS_P1;PMS_P2;Temp;Humidity;BMP_temperature;BMP_pressure;BME280_temperature;BME280_humidity;BME280_pressure;Samples;Min_cycle;Max_cycle;Signal;HPM_P1;HPM_P2
2021/03/15 00:02:25;;;;;;;44.67;26.60;;;;;;;10.11;58.22;93957.47;5099718;28;20437;-66
2021/03/15 00:04:52;;;;;;;45.33;28.43;;;;;;;10.36;57.33;93940.75;5091812;28;20480;-66
2021/03/15 00:07:18;;;;;;;44.40;27.97;;;;;;;10.50;57.19;93941.66;5099956;28;20467;-66
2021/03/15 00:09:45;;;;;;;48.17;27.20;;;;;;;10.53;56.51;93931.41;5094653;28;20458;-66
2021/03/15 00:12:13;;;;;;;44.73;27.80;;;;;;;10.41;56.40;93894.38;5104640;27;20445;-67
2021/03/15 00:14:39;;;;;;;43.03;27.07;;;;;;;10.64;57.03;93917.16;5093955;28;20421;-65
2021/03/15 00:17:06;;;;;;;37.73;26.77;;;;;;;10.66;56.93;93922.09;5094142;28;20449;-66
2021/03/15 00:19:32;;;;;;;37.03;25.43;;;;;;;10.66;56.85;93922.91;5093435;28;20950;-67
2021/03/15 00:21:59;;;;;;;40.10;27.33;;;;;;;10.69;57.02;93918.94;5093819;28;20456;-66
2021/03/15 00:24:25;;;;;;;45.03;27.73;;;;;;;10.37;58.32;93924.78;5093115;28;20456;-65
2021/03/15 00:26:51;;;;;;;41.17;27.43;;;;;;;10.54;57.36;93924.34;5105685;28;20459;-65
2021/03/15 00:29:21;;;;;;;42.27;27.80;;;;;;;10.49;58.03;93921.78;5094297;28;20421;-66
2021/03/15 00:31:49;;;;;;;41.43;26.73;;;;;;;10.48;57.83;93914.97;5105472;28;20567;-65
2021/03/15 00:34:16;;;;;;;43.10;28.60;;;;;;;10.52;57.94;93922.00;5093631;28;20480;-68
2021/03/15 00:36:43;;;;;;;46.43;27.87;;;;;;;10.58;57.37;93926.16;5104330;28;20463;-66
2021/03/15 00:39:12;;;;;;;44.23;28.20;;;;;;;10.70;57.35;93920.50;5093512;28;20429;-66
2021/03/15 00:41:39;;;;;;;42.40;30.17;;;;;;;10.56;57.56;93912.53;5099469;28;21000;-65
2021/03/15 00:44:08;;;;;;;42.63;27.93;;;;;;;10.16;58.64;93907.72;5113626;28;20488;-65
2021/03/15 00:46:36;;;;;;;44.03;28.63;;;;;;;10.36;58.13;93899.66;5106494;28;20531;-66
2021/03/15 00:49:03;;;;;;;42.83;30.00;;;;;;;10.49;57.73;93890.34;5093610;28;20507;-66
2021/03/15 00:51:30;;;;;;;42.87;28.60;;;;;;;10.58;58.10;93886.84;5102648;28;20991;-65
2021/03/15 00:53:57;;;;;;;44.77;28.47;;;;;;;10.64;57.23;93880.47;5092930;28;21196;-67
2021/03/15 00:56:27;;;;;;;43.17;30.27;;;;;;;10.68;57.21;93886.72;5102598;28;20440;-67
2021/03/15 00:58:54;;;;;;;44.13;29.63;;;;;;;10.46;58.58;93891.69;5092566;28;20883;-66
2021/03/15 01:01:34;;;;;;;42.03;29.30;;;;;;;10.29;58.55;93891.34;5102839;28;20551;-67
2021/03/15 01:04:02;;;;;;;43.90;28.87;;;;;;;10.16;58.88;93871.06;5091628;28;20915;-66
2021/03/15 01:06:42;;;;;;;42.37;29.80;;;;;;;10.37;57.87;93879.47;5102189;28;20544;-66
2021/03/15 01:09:21;;;;;;;40.67;29.47;;;;;;;10.54;58.06;93877.19;5092292;28;20453;-67
2021/03/15 01:11:53;;;;;;;44.13;29.20;;;;;;;10.58;59.08;93863.28;5104974;28;20819;-67
2021/03/15 01:14:21;;;;;;;40.93;28.70;;;;;;;10.53;59.28;93852.84;5111718;28;20509;-68
2021/03/15 01:17:05;;;;;;;43.37;28.80;;;;;;;10.54;59.41;93856.25;5100799;28;20539;-66
2021/03/15 01:19:35;;;;;;;43.17;27.83;;;;;;;10.51;58.67;93846.34;5109864;28;20985;-67
2021/03/15 01:22:02;;;;;;;40.07;29.37;;;;;;;10.52;58.73;93838.19;5103576;28;20441;-66
2021/03/15 01:24:28;;;;;;;41.63;30.03;;;;;;;10.13;60.56;93846.22;5091888;28;20975;-69
2021/03/15 01:26:55;;;;;;;47.23;29.40;;;;;;;10.21;59.99;93834.34;5104282;27;20429;-66
2021/03/15 01:29:21;;;;;;;41.97;28.00;;;;;;;10.31;60.23;93826.38;5092563;28;20445;-67
2021/03/15 01:31:48;;;;;;;42.87;30.00;;;;;;;10.21;60.04;93802.94;5104071;28;20455;-67
2021/03/15 01:34:14;;;;;;;43.97;30.43;;;;;;;10.34;60.11;93797.03;5092422;28;20461;-67
2021/03/15 01:36:44;;;;;;;43.87;28.83;;;;;;;10.42;59.08;93806.13;5103158;28;20448;-65
2021/03/15 01:39:11;;;;;;;40.13;28.97;;;;;;;10.31;60.20;93815.91;5092466;28;20437;-68
2021/03/15 01:41:37;;;;;;;42.77;29.13;;;;;;;10.03;60.67;93808.88;5103348;28;20452;-67
2021/03/15 01:44:04;;;;;;;43.17;29.37;;;;;;;10.23;60.06;93797.44;5092770;28;21016;-67
2021/03/15 01:46:30;;;;;;;42.00;29.00;;;;;;;10.12;60.69;93788.91;5102896;28;20444;-68
2021/03/15 01:48:57;;;;;;;43.80;30.00;;;;;;;9.93;61.42;93798.50;5092520;28;20444;-66
2021/03/15 01:51:23;;;;;;;43.13;28.90;;;;;;;10.23;60.54;93792.19;5101802;28;20536;-66
2021/03/15 01:53:50;;;;;;;44.83;31.17;;;;;;;10.09;60.91;93797.34;5093484;27;20831;-66
2021/03/15 01:56:17;;;;;;;41.20;29.93;;;;;;;10.17;60.61;93799.31;5100141;28;20491;-65
2021/03/15 01:58:44;;;;;;;43.23;30.73;;;;;;;10.11;61.05;93784.72;5094958;28;20456;-67
2021/03/15 02:01:12;;;;;;;48.17;30.63;;;;;;;10.24;60.72;93783.28;5099646;28;20444;-68
2021/03/15 02:03:39;;;;;;;43.67;31.00;;;;;;;10.13;61.20;93788.63;5094820;28;20484;-66
2021/03/15 02:06:05;;;;;;;50.93;32.37;;;;;;;9.94;61.58;93779.13;5098580;28;20858;-66
2021/03/15 02:08:32;;;;;;;49.87;31.40;;;;;;;10.05;61.36;93764.88;5095751;27;20464;-67
2021/03/15 02:11:08;;;;;;;47.73;31.03;;;;;;;10.17;60.80;93760.06;5097721;28;20448;-67
2021/03/15 02:13:58;;;;;;;46.60;31.37;;;;;;;10.20;60.97;93762.09;5095089;28;20467;-67
2021/03/15 02:16:47;;;;;;;45.00;31.30;;;;;;;10.27;60.51;93759.97;5100930;28;20452;-67
2021/03/15 02:19:47;;;;;;;45.47;30.20;;;;;;;10.35;60.63;93764.56;5091698;28;20437;-67
2021/03/15 02:22:20;;;;;;;46.23;31.27;;;;;;;10.32;60.68;93752.03;5101533;28;20555;-66
2021/03/15 02:25:01;;;;;;;44.93;30.97;;;;;;;10.32;60.96;93754.66;5109129;28;20512;-66
2021/03/15 02:27:52;;;;;;;45.53;32.20;;;;;;;10.28;61.14;93743.16;5106715;28;20819;-66
2021/03/15 02:30:37;;;;;;;54.60;32.70;;;;;;;10.27;61.64;93741.63;5107578;28;20503;-67
2021/03/15 02:33:28;;;;;;;46.33;32.43;;;;;;;10.30;61.28;93742.88;5104391;28;20455;-67
2021/03/15 02:35:57;;;;;;;51.30;33.43;;;;;;;10.40;60.50;93734.91;5104313;28;20448;-67
2021/03/15 02:38:27;;;;;;;47.53;32.83;;;;;;;10.37;61.07;93735.47;5095985;28;20836;-66
2021/03/15 02:40:56;;;;;;;51.53;33.27;;;;;;;10.23;61.59;93740.63;5097708;28;20449;-67
2021/03/15 02:43:29;;;;;;;49.37;33.20;;;;;;;10.21;60.93;93719.19;5096594;28;20479;-65
2021/03/15 02:46:00;;;;;;;54.50;35.33;;;;;;;10.29;60.98;93729.03;5097308;28;20452;-66
2021/03/15 02:48:29;;;;;;;56.80;36.70;;;;;;;10.34;61.25;93731.59;5095163;28;20452;-66
2021/03/15 02:50:57;;;;;;;49.93;33.17;;;;;;;10.33;61.05;93730.00;5096394;28;20534;-66
2021/03/15 02:53:25;;;;;;;49.73;34.03;;;;;;;10.38;61.34;93724.72;5095823;28;20813;-66
2021/03/15 02:56:20;;;;;;;50.60;34.63;;;;;;;10.38;61.46;93722.13;5095697;28;20524;-66
2021/03/15 02:58:49;;;;;;;56.47;36.20;;;;;;;10.34;61.68;93715.88;5092556;28;20894;-66
2021/03/15 03:01:20;;;;;;;54.50;36.07;;;;;;;10.40;61.56;93714.72;5099416;28;20559;-66
2021/03/15 03:03:49;;;;;;;51.30;33.80;;;;;;;10.08;62.73;93719.84;5092137;28;21008;-66
2021/03/15 03:06:18;;;;;;;49.80;33.47;;;;;;;10.13;62.85;93714.56;5099187;28;20490;-66
2021/03/15 03:08:46;;;;;;;47.57;33.03;;;;;;;10.11;62.27;93706.22;5092869;28;21236;-66
2021/03/15 03:11:14;;;;;;;47.17;34.00;;;;;;;10.10;62.63;93694.19;5098563;28;20988;-67
2021/03/15 03:13:43;;;;;;;50.67;33.97;;;;;;;10.16;62.80;93703.56;5091636;28;20449;-69
2021/03/15 03:16:10;;;;;;;52.70;34.93;;;;;;;10.17;62.89;93697.25;5098415;28;20458;-67
2021/03/15 03:18:38;;;;;;;54.93;35.53;;;;;;;10.12;62.98;93697.31;5093629;28;20473;-67
2021/03/15 03:21:07;;;;;;;47.97;33.60;;;;;;;10.30;62.33;93699.16;5097465;28;20501;-67
2021/03/15 03:23:38;;;;;;;49.97;35.07;;;;;;;10.26;62.43;93682.47;5094089;28;20469;-67
2021/03/15 03:26:07;;;;;;;50.43;34.37;;;;;;;10.14;63.01;93695.19;5097622;28;20546;-66
2021/03/15 03:28:34;;;;;;;50.30;35.37;;;;;;;10.12;63.00;93697.31;5094413;28;20441;-67
2021/03/15 03:31:03;;;;;;;50.07;34.20;;;;;;;10.02;64.08;93702.63;5096539;28;20516;-67
2021/03/15 03:33:30;;;;;;;49.43;33.77;;;;;;;10.14;63.59;93692.56;5094152;27;20445;-66
2021/03/15 03:35:57;;;;;;;48.57;33.80;;;;;;;10.14;63.37;93695.94;5096247;28;20883;-67
2021/03/15 03:38:41;;;;;;;52.87;33.17;;;;;;;10.03;63.65;93683.25;5093344;28;21001;-66
2021/03/15 03:41:08;;;;;;;53.57;35.20;;;;;;;10.13;63.77;93683.16;5097724;28;20472;-66
2021/03/15 03:43:35;;;;;;;49.47;33.50;;;;;;;9.92;64.62;93687.84;5094000;28;20575;-67
2021/03/15 03:46:03;;;;;;;46.43;31.43;;;;;;;10.02;64.48;93676.47;5096961;28;20448;-66
2021/03/15 03:48:30;;;;;;;47.23;32.87;;;;;;;10.08;64.94;93655.19;5094458;28;20587;-67
2021/03/15 03:50:58;;;;;;;43.70;31.97;;;;;;;10.05;65.32;93676.66;5095820;28;20448;-67
2021/03/15 03:53:52;;;;;;;42.33;31.20;;;;;;;10.11;65.85;93664.34;5094507;28;20441;-66
2021/03/15 03:56:24;;;;;;;42.93;30.40;;;;;;;10.16;64.53;93656.44;5092714;28;20456;-67
2021/03/15 03:58:54;;;;;;;44.60;30.53;;;;;;;10.21;64.59;93664.22;5089855;28;20449;-66
2021/03/15 04:01:37;;;;;;;47.37;31.27;;;;;;;10.20;64.78;93654.78;5099159;28;20459;-65
2021/03/15 04:04:06;;;;;;;43.13;30.63;;;;;;;10.21;64.33;93658.97;5090066;28;20998;-65
2021/03/15 04:06:36;;;;;;;45.50;31.43;;;;;;;10.15;64.84;93649.63;5100571;28;20494;-65
2021/03/15 04:09:10;;;;;;;44.57;30.50;;;;;;;10.14;64.74;93637.63;5092151;28;20452;-64
2021/03/15 04:11:42;;;;;;;45.50;31.40;;;;;;;10.18;64.72;93636.75;5096662;28;20459;-66
2021/03/15 04:14:12;;;;;;;42.30;30.33;;;;;;;10.23;64.54;93640.38;5110434;28;20420;-65
2021/03/15 04:16:41;;;;;;;43.40;29.30;;;;;;;10.15;64.16;93624.25;5102028;28;21018;-66
2021/03/15 04:19:09;;;;;;;37.57;28.30;;;;;;;10.21;64.24;93622.34;5089954;28;21007;-67
2021/03/15 04:21:37;;;;;;;40.43;28.33;;;;;;;9.94;65.59;93622.16;5100761;28;20452;-67
2021/03/15 04:24:06;;;;;;;34.87;27.37;;;;;;;9.87;65.82;93611.25;5089738;28;21053;-67
2021/03/15 04:26:34;;;;;;;35.20;27.50;;;;;;;9.96;65.27;93625.28;5100486;28;20456;-66
2021/03/15 04:29:03;;;;;;;39.03;27.20;;;;;;;10.14;64.83;93616.69;5089919;28;20471;-66
2021/03/15 04:31:30;;;;;;;34.93;27.20;;;;;;;10.16;64.72;93620.53;5099704;28;20467;-66
2021/03/15 04:33:56;;;;;;;33.20;26.17;;;;;;;10.13;65.06;93615.09;5090161;28;20828;-67
2021/03/15 04:36:24;;;;;;;37.87;28.00;;;;;;;10.17;63.99;93616.09;5098935;28;20456;-68
2021/03/15 04:38:51;;;;;;;34.47;27.03;;;;;;;10.14;64.26;93606.22;5091150;28;20547;-66
2021/03/15 04:41:18;;;;;;;35.13;27.30;;;;;;;10.16;64.05;93609.31;5098255;28;20452;-67
2021/03/15 04:43:48;;;;;;;36.87;28.47;;;;;;;10.24;63.64;93621.75;5091426;28;20932;-67
2021/03/15 04:46:17;;;;;;;36.30;27.07;;;;;;;10.09;64.59;93619.38;5097506;28;21081;-66
2021/03/15 04:48:45;;;;;;;35.27;27.37;;;;;;;10.06;64.42;93612.03;5094160;28;20569;-67
2021/03/15 04:51:12;;;;;;;37.83;27.93;;;;;;;10.12;64.42;93613.56;5092788;28;20448;-65
2021/03/15 04:53:41;;;;;;;41.60;29.00;;;;;;;10.13;64.33;93615.88;5096388;28;20453;-65
2021/03/15 04:56:10;;;;;;;38.37;28.90;;;;;;;10.13;63.73;93610.66;5113962;28;20532;-66
2021/03/15 04:58:39;;;;;;;40.80;29.30;;;;;;;9.92;65.86;93622.44;5104045;28;20455;-65
2021/03/15 05:01:07;;;;;;;42.07;28.23;;;;;;;9.94;65.81;93619.53;5104202;28;20458;-64
2021/03/15 05:03:36;;;;;;;39.67;29.87;;;;;;;10.00;64.93;93600.06;5105063;28;20988;-64
2021/03/15 05:06:03;;;;;;;36.40;27.47;;;;;;;9.94;65.04;93607.25;5112795;28;21093;-63
2021/03/15 05:08:41;;;;;;;43.37;29.80;;;;;;;9.98;65.01;93602.22;5097877;28;20447;-63
2021/03/15 05:11:10;;;;;;;39.30;28.23;;;;;;;9.94;65.40;93598.59;5093209;28;20452;-64
2021/03/15 05:13:39;;;;;;;39.67;29.63;;;;;;;10.04;65.41;93591.38;5093117;28;20981;-65
2021/03/15 05:16:08;;;;;;;37.63;27.90;;;;;;;10.08;64.99;93599.44;5094171;28;20445;-66
2021/03/15 05:18:36;;;;;;;39.83;28.37;;;;;;;10.00;65.54;93598.25;5099673;28;20437;-66
2021/03/15 05:21:03;;;;;;;43.17;29.80;;;;;;;10.08;64.71;93605.47;5093098;28;20540;-66
2021/03/15 05:23:32;;;;;;;41.33;30.33;;;;;;;10.08;65.32;93596.84;5092962;28;20445;-66
2021/03/15 05:26:01;;;;;;;39.83;27.37;;;;;;;10.05;65.55;93598.16;5092868;28;20531;-65
2021/03/15 05:28:28;;;;;;;36.33;28.50;;;;;;;10.23;64.86;93598.50;5105570;28;20448;-66
2021/03/15 05:31:00;;;;;;;41.43;31.20;;;;;;;10.26;65.32;93598.69;5096767;28;20449;-65
2021/03/15 05:33:36;;;;;;;37.50;29.30;;;;;;;10.39;64.31;93595.38;5092903;28;20506;-66
2021/03/15 05:36:08;;;;;;;36.03;28.07;;;;;;;10.33;64.50;93575.53;5092502;28;20523;-64
2021/03/15 05:38:36;;;;;;;38.90;28.07;;;;;;;10.49;63.55;93592.56;5111117;28;20444;-63
2021/03/15 05:41:07;;;;;;;39.30;29.40;;;;;;;10.55;63.92;93599.28;5117419;28;20463;-63
2021/03/15 05:44:09;;;;;;;41.47;29.07;;;;;;;10.46;64.16;93587.91;5113043;28;20805;-64
2021/03/15 05:47:04;;;;;;;46.53;28.93;;;;;;;10.54;63.28;93587.28;5093884;28;21069;-65
2021/03/15 05:49:55;;;;;;;37.57;27.30;;;;;;;10.47;64.24;93588.69;5100808;28;20449;-69
2021/03/15 05:52:37;;;;;;;46.00;33.40;;;;;;;10.35;64.94;93586.50;5092330;28;20437;-69
2021/03/15 05:55:31;;;;;;;62.13;47.30;;;;;;;10.53;64.53;93588.31;5092611;28;20448;-65
2021/03/15 05:58:22;;;;;;;41.17;29.80;;;;;;;10.51;64.38;93584.47;5092526;28;20438;-65
2021/03/15 06:01:10;;;;;;;46.37;31.40;;;;;;;10.54;63.92;93589.91;5092818;28;20519;-66
2021/03/15 06:04:16;;;;;;;42.00;29.73;;;;;;;10.50;64.41;93593.34;5092245;28;20962;-68
2021/03/15 06:06:47;;;;;;;44.23;29.77;;;;;;;10.65;63.67;93586.06;5091219;28;20814;-69
2021/03/15 06:09:20;;;;;;;40.33;27.20;;;;;;;10.65;63.00;93586.06;5092064;28;20449;-68
2021/03/15 06:11:54;;;;;;;38.07;26.33;;;;;;;10.62;63.74;93578.75;5105609;28;20440;-66
2021/03/15 06:14:22;;;;;;;33.17;26.10;;;;;;;10.72;63.22;93586.47;5112359;28;20447;-65
2021/03/15 06:16:51;;;;;;;36.37;26.77;;;;;;;10.73;62.31;93582.75;5112823;28;20439;-67
2021/03/15 06:19:19;;;;;;;37.97;28.40;;;;;;;10.81;63.69;93578.69;5112517;28;20440;-68
2021/03/15 06:21:46;;;;;;;39.13;29.37;;;;;;;10.72;62.67;93580.44;5111431;28;20439;-67
2021/03/15 06:24:13;;;;;;;39.27;30.00;;;;;;;10.86;62.68;93576.78;5109490;27;20524;-68
2021/03/15 06:26:42;;;;;;;35.43;27.43;;;;;;;10.68;62.91;93575.00;5111555;28;20488;-64
2021/03/15 06:29:08;;;;;;;36.00;27.13;;;;;;;10.83;62.90;93581.81;5112565;27;20503;-66
2021/03/15 06:31:37;;;;;;;31.60;24.37;;;;;;;10.95;62.63;93588.16;5111860;28;20447;-68
2021/03/15 06:34:04;;;;;;;35.00;26.77;;;;;;;10.84;63.87;93584.13;5112542;28;21108;-65
2021/03/15 06:36:33;;;;;;;39.00;27.87;;;;;;;11.01;63.26;93580.97;5111503;28;20420;-64
2021/03/15 06:39:00;;;;;;;33.10;26.23;;;;;;;10.93;62.24;93577.16;5111861;28;20858;-66
2021/03/15 06:41:28;;;;;;;33.00;26.47;;;;;;;10.94;63.06;93564.84;5111578;28;20455;-69
2021/03/15 06:43:55;;;;;;;33.03;25.77;;;;;;;10.99;62.62;93570.78;5111892;27;20459;-70
2021/03/15 06:46:21;;;;;;;35.97;25.93;;;;;;;11.10;62.70;93566.13;5111535;28;20526;-69
2021/03/15 06:48:48;;;;;;;36.60;27.37;;;;;;;10.89;63.90;93562.34;5111361;28;20435;-69
2021/03/15 06:51:14;;;;;;;37.37;27.73;;;;;;;11.11;63.59;93571.06;5111585;28;20436;-67
2021/03/15 06:53:42;;;;;;;37.53;27.13;;;;;;;11.14;63.16;93572.34;5111707;28;20965;-65
2021/03/15 06:56:11;;;;;;;35.27;26.63;;;;;;;11.07;63.23;93564.88;5111112;28;20451;-70
2021/03/15 06:58:48;;;;;;;32.97;26.77;;;;;;;11.05;63.19;93567.00;5111586;28;20450;-64
2021/03/15 07:01:16;;;;;;;36.63;25.83;;;;;;;11.20;63.49;93561.47;5111107;28;20425;-65
2021/03/15 07:03:45;;;;;;;32.53;26.23;;;;;;;11.00;62.77;93563.72;5111351;28;20440;-66
2021/03/15 07:06:12;;;;;;;37.00;28.77;;;;;;;11.14;63.60;93562.66;5110970;28;20483;-65
2021/03/15 07:08:39;;;;;;;39.67;26.83;;;;;;;11.29;62.48;93556.34;5114268;28;20464;-67
2021/03/15 07:11:24;;;;;;;36.17;28.20;;;;;;;11.41;62.72;93555.84;5113073;28;20448;-68
2021/03/15 07:13:51;;;;;;;34.93;27.57;;;;;;;11.03;63.25;93556.03;5111114;28;20441;-70
2021/03/15 07:16:28;;;;;;;34.70;27.53;;;;;;;11.11;63.09;93542.25;5110512;28;20536;-66
2021/03/15 07:19:01;;;;;;;40.57;27.93;;;;;;;11.19;63.07;93543.41;5111071;27;20436;-69
2021/03/15 07:21:35;;;;;;;35.93;27.37;;;;;;;11.26;62.42;93548.28;5111010;28;20448;-64
2021/03/15 07:24:07;;;;;;;36.00;27.23;;;;;;;11.22;63.04;93537.59;5111138;28;20543;-65
2021/03/15 07:26:36;;;;;;;36.43;27.27;;;;;;;11.36;62.93;93543.63;5111257;28;20439;-66
2021/03/15 07:29:11;;;;;;;34.80;26.43;;;;;;;11.34;63.09;93537.88;5111285;28;20443;-68
2021/03/15 07:31:38;;;;;;;32.70;26.53;;;;;;;11.45;62.55;93533.22;5110650;28;20447;-67
2021/03/15 07:34:05;;;;;;;33.60;26.20;;;;;;;11.56;62.74;93524.06;5110624;28;20420;-64
2021/03/15 07:36:33;;;;;;;31.77;25.27;;;;;;;11.46;62.57;93513.78;5110464;28;20475;-67
2021/03/15 07:39:07;;;;;;;34.87;26.27;;;;;;;11.50;62.82;93522.59;5110571;28;20423;-65
2021/03/15 07:41:46;;;;;;;34.97;26.77;;;;;;;11.50;62.78;93512.13;5111064;28;20957;-67
2021/03/15 07:44:22;;;;;;;34.57;26.17;;;;;;;11.49;63.08;93508.75;5111917;28;21012;-66
2021/03/15 07:46:51;;;;;;;35.67;26.60;;;;;;;11.56;62.69;93506.50;5112997;28;20844;-68
2021/03/15 07:49:29;;;;;;;35.87;25.63;;;;;;;11.62;61.94;93510.56;5112649;28;20432;-67
2021/03/15 07:51:58;;;;;;;35.07;25.73;;;;;;;11.86;61.62;93515.59;5112646;28;20451;-67
2021/03/15 07:54:28;;;;;;;37.07;27.70;;;;;;;11.86;61.19;93518.97;5110339;28;20436;-66
2021/03/15 07:57:17;;;;;;;37.03;29.20;;;;;;;11.77;61.35;93514.75;5110604;28;20440;-67
2021/03/15 07:59:46;;;;;;;41.17;31.27;;;;;;;11.84;60.81;93496.75;5110195;28;20434;-66
2021/03/15 08:02:23;;;;;;;42.13;31.43;;;;;;;11.76;60.96;93495.59;5110543;28;20432;-64
2021/03/15 08:04:52;;;;;;;37.70;27.87;;;;;;;11.85;61.10;93493.03;5109930;28;20566;-65
2021/03/15 08:07:20;;;;;;;36.30;26.30;;;;;;;12.03;60.00;93478.97;5110310;28;20474;-67
2021/03/15 08:09:52;;;;;;;37.57;26.80;;;;;;;12.14;60.04;93485.53;5110063;28;20456;-65
2021/03/15 08:12:23;;;;;;;40.77;27.40;;;;;;;12.16;59.93;93486.78;5110713;28;20436;-66
2021/03/15 08:14:58;;;;;;;43.70;28.07;;;;;;;12.29;59.38;93481.75;5110279;28;21041;-68
2021/03/15 08:17:28;;;;;;;37.27;27.63;;;;;;;12.54;58.87;93473.25;5108736;28;20458;-69
2021/03/15 08:19:57;;;;;;;34.53;25.87;;;;;;;12.61;58.85;93474.38;5110433;28;20420;-70
2021/03/15 08:22:30;;;;;;;30.97;24.83;;;;;;;12.82;57.97;93470.16;5110403;28;20432;-64
2021/03/15 08:24:58;;;;;;;31.03;23.57;;;;;;;12.79;57.71;93475.25;5109554;28;20476;-66
2021/03/15 08:27:28;;;;;;;29.47;22.97;;;;;;;12.49;58.08;93471.53;5110637;28;20810;-66
2021/03/15 08:29:58;;;;;;;34.00;23.70;;;;;;;12.43;58.80;93477.22;5114270;28;20455;-68
2021/03/15 08:32:27;;;;;;;32.27;25.53;;;;;;;12.49;58.50;93482.06;5114877;28;21031;-67
2021/03/15 08:34:55;;;;;;;32.53;24.70;;;;;;;12.55;58.46;93465.09;5114100;28;20489;-64
2021/03/15 08:38:00;;;;;;;31.70;24.53;;;;;;;12.74;57.81;93457.75;5116447;28;20454;-67
2021/03/15 08:40:45;;;;;;;32.27;24.10;;;;;;;12.87;57.30;93464.78;5093928;27;20448;-67
2021/03/15 08:43:17;;;;;;;31.00;24.20;;;;;;;12.99;57.28;93458.94;5113698;28;20468;-68
2021/03/15 08:45:51;;;;;;;33.03;24.97;;;;;;;13.16;57.12;93441.38;5113678;28;20479;-66
2021/03/15 08:48:20;;;;;;;28.53;23.03;;;;;;;13.27;56.24;93448.97;5114267;28;21231;-63
2021/03/15 08:50:48;;;;;;;30.70;23.80;;;;;;;13.37;55.77;93443.44;5113250;28;20900;-64
2021/03/15 08:53:56;;;;;;;27.83;22.20;;;;;;;13.49;54.88;93430.44;5113991;28;20493;-65
2021/03/15 08:56:22;;;;;;;29.80;23.53;;;;;;;13.39;55.71;93433.38;5113476;28;20495;-69
2021/03/15 08:58:50;;;;;;;28.13;22.43;;;;;;;13.23;55.87;93428.56;5113922;28;20432;-68
2021/03/15 09:01:19;;;;;;;33.10;23.80;;;;;;;13.17;55.80;93421.88;5111995;28;20957;-69
2021/03/15 09:03:49;;;;;;;28.87;22.13;;;;;;;13.14;56.01;93425.13;5113616;28;20428;-63
2021/03/15 09:06:36;;;;;;;30.27;24.10;;;;;;;13.38;55.65;93413.41;5112711;28;20478;-66
2021/03/15 09:09:06;;;;;;;29.17;23.07;;;;;;;13.41;55.19;93407.53;5113918;28;20518;-66
2021/03/15 09:11:38;;;;;;;29.17;23.13;;;;;;;13.47;55.15;93406.28;5112968;28;20527;-68
2021/03/15 09:14:17;;;;;;;26.77;21.43;;;;;;;13.61;54.44;93402.44;5113407;28;20437;-67
2021/03/15 09:16:56;;;;;;;28.00;22.87;;;;;;;13.67;54.07;93397.78;5113462;28;20810;-67
2021/03/15 09:19:34;;;;;;;31.20;22.73;;;;;;;13.68;53.63;93386.19;5112917;28;20432;-67
2021/03/15 09:22:23;;;;;;;28.47;22.63;;;;;;;13.62;54.26;93382.16;5113366;28;20973;-65
2021/03/15 09:24:59;;;;;;;28.63;22.17;;;;;;;13.97;53.46;93381.06;5112875;28;20474;-65
2021/03/15 09:27:36;;;;;;;28.13;21.23;;;;;;;14.00;53.38;93375.94;5113323;28;20514;-67
2021/03/15 09:30:23;;;;;;;26.33;21.00;;;;;;;14.14;52.96;93368.63;5112642;28;20457;-67
2021/03/15 09:32:51;;;;;;;35.53;20.43;;;;;;;14.23;52.25;93365.97;5112933;28;20497;-64
2021/03/15 09:35:24;;;;;;;27.13;20.60;;;;;;;14.23;51.73;93363.34;5112922;28;20468;-65
2021/03/15 09:38:06;;;;;;;28.30;20.70;;;;;;;14.04;52.56;93365.53;5113140;28;20539;-67
2021/03/15 09:40:34;;;;;;;28.20;21.10;;;;;;;13.82;52.42;93360.47;5112374;28;20446;-65
2021/03/15 09:43:10;;;;;;;23.83;19.77;;;;;;;13.88;52.35;93352.09;5112837;28;20475;-67
2021/03/15 09:45:40;;;;;;;27.10;21.67;;;;;;;13.54;52.99;93348.75;5112629;28;20463;-65
2021/03/15 09:48:20;;;;;;;23.40;19.83;;;;;;;13.70;52.84;93347.19;5111562;28;20477;-65
2021/03/15 09:50:56;;;;;;;23.97;19.93;;;;;;;13.81;52.61;93351.03;5110978;28;20524;-67
2021/03/15 09:53:36;;;;;;;27.67;19.53;;;;;;;13.73;52.14;93338.66;5111303;28;20445;-65
2021/03/15 09:56:08;;;;;;;26.37;19.23;;;;;;;13.93;51.88;93345.91;5110897;28;20436;-64
2021/03/15 09:58:42;;;;;;;22.03;17.60;;;;;;;13.92;51.83;93333.81;5112353;28;20444;-68
2021/03/15 10:01:19;;;;;;;27.47;20.67;;;;;;;13.67;52.00;93332.00;5110896;28;20439;-68
2021/03/15 10:04:18;;;;;;;29.57;21.63;;;;;;;13.62;52.87;93325.03;5110846;28;20482;-65
2021/03/15 10:06:54;;;;;;;25.83;20.33;;;;;;;13.62;52.77;93297.94;5115061;28;20556;-65
2021/03/15 10:09:47;;;;;;;28.90;19.10;;;;;;;13.66;52.62;93304.91;5088771;28;20440;-66
2021/03/15 10:12:39;;;;;;;29.40;19.47;;;;;;;13.49;52.79;93309.41;5108172;28;20452;-69
2021/03/15 10:15:25;;;;;;;23.57;18.27;;;;;;;13.66;52.55;93306.75;5111691;28;20436;-68
2021/03/15 10:18:07;;;;;;;21.70;18.20;;;;;;;13.65;53.24;93313.13;5111055;28;20432;-64
2021/03/15 10:20:52;;;;;;;26.30;18.77;;;;;;;13.63;53.89;93297.63;5111824;28;21027;-64
2021/03/15 10:23:28;;;;;;;25.23;19.33;;;;;;;13.44;52.55;93291.16;5110974;28;20448;-66
2021/03/15 10:25:57;;;;;;;26.17;17.97;;;;;;;13.71;52.66;93285.53;5110029;28;20519;-69
2021/03/15 10:28:29;;;;;;;22.97;18.10;;;;;;;13.97;52.27;93281.78;5112804;28;20866;-67
2021/03/15 10:31:17;;;;;;;24.70;17.73;;;;;;;14.09;51.12;93286.34;5110188;28;20547;-67
2021/03/15 10:33:50;;;;;;;24.47;17.87;;;;;;;14.08;52.01;93295.38;5110691;28;20428;-69
2021/03/15 10:36:21;;;;;;;25.13;19.17;;;;;;;14.30;51.59;93275.94;5110478;28;20448;-68
2021/03/15 10:39:03;;;;;;;26.10;19.57;;;;;;;14.05;51.57;93262.53;5110561;28;20884;-67
2021/03/15 10:41:30;;;;;;;23.77;18.37;;;;;;;14.14;51.23;93273.03;5111188;28;20891;-67
2021/03/15 10:43:59;;;;;;;29.80;20.23;;;;;;;14.18;50.88;93268.66;5111472;28;20427;-66
2021/03/15 10:46:53;;;;;;;25.47;20.80;;;;;;;14.25;50.92;93261.81;5109694;28;20485;-65
2021/03/15 10:49:25;;;;;;;26.53;20.20;;;;;;;14.15;50.93;93253.50;5110463;28;20864;-65
2021/03/15 10:51:58;;;;;;;27.53;20.47;;;;;;;13.74;52.41;93248.09;5109703;28;20550;-66
2021/03/15 10:54:35;;;;;;;26.27;19.67;;;;;;;13.86;52.25;93245.56;5109631;28;20436;-70
2021/03/15 10:57:19;;;;;;;25.43;18.83;;;;;;;14.14;51.53;93236.16;5110033;28;20881;-70
2021/03/15 10:59:50;;;;;;;28.83;18.63;;;;;;;14.36;50.66;93222.72;5111176;28;20424;-65
2021/03/15 11:02:29;;;;;;;23.00;17.53;;;;;;;14.52;50.87;93228.25;5110069;28;20535;-65
2021/03/15 11:05:04;;;;;;;21.47;18.00;;;;;;;14.56;50.72;93219.38;5110704;28;20487;-68
2021/03/15 11:07:37;;;;;;;19.97;16.23;;;;;;;14.59;50.40;93221.38;5109949;28;20432;-65
2021/03/15 11:10:17;;;;;;;23.73;17.50;;;;;;;14.66;49.72;93205.81;5109453;28;20462;-65
2021/03/15 11:12:56;;;;;;;21.20;18.10;;;;;;;14.50;50.48;93207.47;5109778;28;20483;-68
2021/03/15 11:15:36;;;;;;;24.33;17.83;;;;;;;14.28;50.64;93199.84;5108984;28;20828;-66
2021/03/15 11:18:21;;;;;;;21.67;17.20;;;;;;;14.42;50.15;93186.44;5110005;28;20475;-67
2021/03/15 11:20:55;;;;;;;18.97;16.03;;;;;;;14.09;49.88;93186.28;5109445;28;20489;-64
2021/03/15 11:23:39;;;;;;;21.57;15.23;;;;;;;14.20;49.45;93182.97;5111205;28;20448;-69
2021/03/15 11:26:16;;;;;;;19.47;15.17;;;;;;;14.15;49.45;93174.50;5109453;28;20484;-65
2021/03/15 11:28:51;;;;;;;18.70;15.40;;;;;;;14.16;49.68;93171.53;5110088;28;20915;-68
2021/03/15 11:31:29;;;;;;;17.47;14.57;;;;;;;14.10;49.15;93172.03;5109028;28;20440;-66
2021/03/15 11:34:01;;;;;;;18.60;14.63;;;;;;;13.96;49.16;93168.84;5109906;28;20452;-67
2021/03/15 11:36:49;;;;;;;17.93;15.47;;;;;;;14.14;49.27;93172.97;5111911;28;20451;-67
2021/03/15 11:39:25;;;;;;;16.77;14.67;;;;;;;14.03;49.16;93180.44;5109447;28;20458;-66
2021/03/15 11:41:59;;;;;;;17.23;13.50;;;;;;;14.10;47.91;93172.03;5109986;28;20432;-63
2021/03/15 11:44:30;;;;;;;16.83;13.60;;;;;;;13.86;47.76;93166.59;5108687;28;20482;-66